Albion, California
Current Conditions -  °F | °C
As of 5:26 PM on Friday 28 Nov 2014 (Local Time) from KUKI Reporting Station
Light Rain Light Rain  
Wind Chill: 51°   Ceiling: 400
Heat Index: 51°   Visibility: 3mi
Dew Point: 49°   Wind: 0mph
Humidity: 92%   Direction: NA
Pressure: 29.86"   Gusts: NA
Location:  39.22°N, 123.77°W
Report Text: KUKI 290126Z AUTO 00000KT 3SM -RA BR BKN004 BKN009 OVC016 11/09 A2986 RMK AO2 P0004 T01060094
Loading
Personal Weather Stations






























Interactive Weather Map New forecast layout! Learn more

10-Day Weather Forecast

Advertisements
Track Severe Weather on mobile